Time;durP1;ratioP1;P1;durP2;ratioP2;P2;SDS_P1;SDS_P2;PMS_P1;PMS_P2;Temp;Humidity;BMP_temperature;BMP_pressure;BME280_temperature;BME280_humidity;BME280_pressure;Samples;Min_cycle;Max_cycle;Signal;HPM_P1;HPM_P2
2023/01/10 00:01:43;;;;;;;6.72;2.80;;;;;;;9.47;61.76;101138.16;4950190;28;123917;-67
2023/01/10 00:04:10;;;;;;;12.80;2.85;;;;;;;9.47;62.00;101141.66;4934872;28;113362;-67
2023/01/10 00:06:37;;;;;;;7.32;2.50;;;;;;;9.46;61.79;101145.22;4951200;28;114173;-66
2023/01/10 00:09:04;;;;;;;17.20;3.20;;;;;;;9.44;61.68;101147.06;4951456;28;124599;-66
2023/01/10 00:14:17;;;;;;;14.15;2.78;;;;;;;9.41;61.50;101146.31;4944750;28;114093;-67
2023/01/10 00:16:44;;;;;;;11.43;3.00;;;;;;;9.39;61.32;101154.28;4948983;28;113203;-67
2023/01/10 00:19:11;;;;;;;11.73;2.72;;;;;;;9.36;61.29;101170.25;4937450;28;124720;-66
2023/01/10 00:21:38;;;;;;;8.98;3.03;;;;;;;9.33;61.47;101170.38;4953219;28;124442;-66
2023/01/10 00:24:18;;;;;;;13.65;2.40;;;;;;;9.31;61.32;101182.78;4961053;28;114887;-66
2023/01/10 00:26:50;;;;;;;12.07;3.10;;;;;;;9.27;61.07;101175.88;4945418;28;114663;-67
2023/01/10 00:29:24;;;;;;;11.15;2.40;;;;;;;9.25;61.24;101182.97;4956051;28;124345;-67
2023/01/10 00:31:51;;;;;;;10.85;2.42;;;;;;;9.23;61.37;101185.69;4948933;28;123692;-66
2023/01/10 00:34:19;;;;;;;9.77;2.50;;;;;;;9.20;61.11;101195.50;4948793;28;115208;-66
2023/01/10 00:36:46;;;;;;;11.40;2.40;;;;;;;9.17;61.27;101207.00;4950050;28;114753;-67
2023/01/10 00:39:18;;;;;;;9.48;2.53;;;;;;;9.13;61.10;101208.88;4949780;28;124078;-67
2023/01/10 00:44:31;;;;;;;;;;;;;;;9.08;61.39;101221.41;4951541;28;113631;-66
2023/01/10 00:46:58;;;;;;;9.05;2.25;;;;;;;9.08;61.29;101229.34;4953709;28;113271;-67
2023/01/10 00:49:25;;;;;;;9.68;2.72;;;;;;;9.05;61.33;101218.84;4961495;28;124180;-67
2023/01/10 00:51:52;;;;;;;12.55;3.05;;;;;;;9.03;61.07;101223.31;4955641;28;124423;-66
2023/01/10 00:54:19;;;;;;;8.57;2.03;;;;;;;9.01;61.14;101222.50;4954640;28;114471;-67
2023/01/10 00:56:46;;;;;;;9.65;2.63;;;;;;;8.99;61.33;101224.34;4948411;28;114369;-67
2023/01/10 00:59:13;;;;;;;12.25;2.42;;;;;;;8.96;61.24;101219.16;4933533;28;123007;-67
2023/01/10 01:01:40;;;;;;;9.68;2.20;;;;;;;8.92;61.25;101223.66;4956389;28;124392;-67
2023/01/10 01:04:08;;;;;;;8.27;2.30;;;;;;;8.91;61.26;101227.22;4950927;28;113820;-66
2023/01/10 01:06:35;;;;;;;9.43;2.03;;;;;;;8.88;61.25;101227.31;4953089;28;114294;-66
2023/01/10 01:09:02;;;;;;;8.13;2.30;;;;;;;8.86;61.43;101229.16;4952586;28;123890;-66
2023/01/10 01:11:29;;;;;;;12.52;3.00;;;;;;;8.84;60.99;101240.69;4954117;28;124136;-67
2023/01/10 01:13:57;;;;;;;6.78;2.20;;;;;;;8.82;61.03;101234.59;4958921;28;113933;-66
2023/01/10 01:16:24;;;;;;;13.20;3.13;;;;;;;8.81;61.24;101241.63;4943071;28;113853;-66
2023/01/10 01:18:51;;;;;;;8.60;2.90;;;;;;;8.80;61.13;101250.47;4961547;28;123717;-67
2023/01/10 01:21:20;;;;;;;13.02;2.60;;;;;;;8.80;61.21;101260.16;4958165;28;124189;-66
2023/01/10 01:23:47;;;;;;;8.75;2.70;;;;;;;8.77;61.36;101267.25;4950428;28;115496;-66
2023/01/10 01:26:14;;;;;;;9.82;2.75;;;;;;;8.76;61.08;101273.47;4946851;28;114946;-66
2023/01/10 01:28:41;;;;;;;10.57;2.63;;;;;;;8.76;61.02;101277.91;4955748;28;124436;-67
2023/01/10 01:31:09;;;;;;;7.28;2.40;;;;;;;8.74;61.26;101272.66;4958085;28;124137;-66
2023/01/10 01:33:36;;;;;;;12.68;3.05;;;;;;;8.73;61.14;101281.47;4953319;28;115334;-67
2023/01/10 01:36:07;;;;;;;7.93;2.67;;;;;;;8.73;61.07;101285.91;4955775;28;113261;-66
2023/01/10 01:38:36;;;;;;;12.43;2.95;;;;;;;8.71;61.14;101288.59;4955553;28;124801;-66
2023/01/10 01:41:55;;;;;;;10.75;2.80;;;;;;;8.70;61.18;101291.25;4958481;28;124153;-65
2023/01/10 01:44:13;;;;;;;10.20;2.67;;;;;;;8.67;61.02;101297.50;4953313;28;114906;-66
2023/01/10 01:46:44;;;;;;;6.65;2.42;;;;;;;8.66;60.98;101294.91;4964222;28;114068;-68
2023/01/10 01:49:17;;;;;;;13.70;2.90;;;;;;;8.63;61.19;101306.44;4955166;28;123486;-66
2023/01/10 01:51:48;;;;;;;9.68;2.63;;;;;;;8.60;61.32;101293.31;4967135;28;122792;-66
2023/01/10 01:54:15;;;;;;;11.05;2.53;;;;;;;8.59;60.70;101299.53;4957494;28;114182;-67
2023/01/10 01:56:51;;;;;;;14.23;3.20;;;;;;;8.58;61.19;101303.06;4959190;28;114328;-66
2023/01/10 01:59:25;;;;;;;11.23;3.00;;;;;;;8.57;61.14;101306.63;4946557;28;122920;-67
2023/01/10 02:01:59;;;;;;;13.85;2.65;;;;;;;8.57;61.34;101312.78;4950975;28;123666;-66
2023/01/10 02:04:35;;;;;;;12.35;3.13;;;;;;;8.59;61.24;101320.66;4952949;28;115528;-66
2023/01/10 02:07:03;;;;;;;11.77;2.40;;;;;;;8.60;61.50;101322.38;4957036;28;113772;-67
2023/01/10 02:09:39;;;;;;;12.55;2.83;;;;;;;8.61;61.49;101333.78;4954402;28;123509;-67
2023/01/10 02:12:08;;;;;;;10.02;2.70;;;;;;;8.64;61.45;101333.72;4959445;28;123305;-66
2023/01/10 02:14:36;;;;;;;12.32;2.72;;;;;;;8.64;61.62;101324.00;4961813;28;115966;-67
2023/01/10 02:17:04;;;;;;;8.65;2.50;;;;;;;8.66;61.63;101322.19;4955790;28;114118;-67
2023/01/10 02:19:51;;;;;;;11.38;2.47;;;;;;;8.67;61.54;101318.63;4929044;28;124633;-67
2023/01/10 02:23:08;;;;;;;10.60;2.95;;;;;;;8.67;61.45;101323.91;4959802;28;121774;-67
2023/01/10 02:26:13;;;;;;;11.25;3.30;;;;;;;8.67;61.45;101329.19;4947556;28;115489;-67
2023/01/10 02:29:21;;;;;;;12.93;3.25;;;;;;;8.65;61.41;101325.75;4967097;28;115285;-67
2023/01/10 02:32:07;;;;;;;15.20;3.50;;;;;;;8.65;61.79;101325.75;4965451;28;124888;-67
2023/01/10 02:34:50;;;;;;;;;;;;;;;8.64;61.48;101328.44;4965854;28;124573;-67
2023/01/10 02:37:43;;;;;;;14.48;3.83;;;;;;;8.65;61.62;101333.66;4955376;28;114748;-66
2023/01/10 02:40:23;;;;;;;12.25;3.53;;;;;;;8.66;61.78;101337.16;4963048;28;114153;-67
2023/01/10 02:43:09;;;;;;;14.48;3.70;;;;;;;8.67;61.85;101339.75;4968046;28;124637;-67
2023/01/10 02:45:41;;;;;;;15.20;3.80;;;;;;;8.69;61.82;101337.94;4948949;28;123759;-67
2023/01/10 02:48:09;;;;;;;12.70;3.97;;;;;;;8.72;61.90;101336.97;4963764;28;113073;-67
2023/01/10 02:50:48;;;;;;;17.90;4.35;;;;;;;8.75;61.77;101347.47;4952519;28;115163;-67
2023/01/10 02:53:22;;;;;;;14.23;4.03;;;;;;;8.80;61.92;101339.38;4961145;28;123485;-67
2023/01/10 02:55:58;;;;;;;13.10;3.67;;;;;;;8.82;61.71;101345.53;4947853;28;124639;-66
2023/01/10 02:58:41;;;;;;;12.90;3.88;;;;;;;8.83;61.77;101339.31;4953875;28;114372;-66
2023/01/10 03:01:36;;;;;;;11.90;3.45;;;;;;;8.85;61.94;101342.75;4952149;28;114487;-67
2023/01/10 03:04:44;;;;;;;12.27;3.83;;;;;;;8.86;61.96;101333.94;4952812;28;124781;-67
2023/01/10 03:07:27;;;;;;;10.63;3.00;;;;;;;8.87;61.90;101346.22;4945202;28;125650;-66
2023/01/10 03:10:00;;;;;;;12.85;2.90;;;;;;;8.88;62.00;101353.25;4890584;28;1135092;-67
2023/01/10 03:12:33;;;;;;;12.40;3.92;;;;;;;8.91;61.76;101358.44;4950624;28;114498;-66
2023/01/10 03:15:05;;;;;;;12.63;3.13;;;;;;;8.92;61.68;101366.31;4959177;28;124921;-67
2023/01/10 03:17:33;;;;;;;12.35;3.05;;;;;;;8.94;61.93;101375.06;4956991;28;127649;-67
2023/01/10 03:20:04;;;;;;;13.02;3.50;;;;;;;8.95;61.88;101381.22;4961059;28;114916;-67
2023/01/10 03:22:36;;;;;;;9.65;3.20;;;;;;;8.94;61.62;101379.47;4948456;28;114647;-67
2023/01/10 03:25:06;;;;;;;16.75;3.22;;;;;;;8.95;61.61;101391.78;4953827;28;124492;-67
2023/01/10 03:27:42;;;;;;;11.27;3.15;;;;;;;8.95;61.71;101397.06;4952821;28;123534;-67
2023/01/10 03:30:10;;;;;;;12.93;3.50;;;;;;;8.94;61.89;101405.91;4952279;28;114094;-67
2023/01/10 03:32:37;;;;;;;14.32;3.15;;;;;;;8.93;61.78;101405.03;4968897;28;113591;-67
2023/01/10 03:35:06;;;;;;;12.77;3.25;;;;;;;8.94;61.75;101416.47;4955236;28;123779;-67
2023/01/10 03:37:40;;;;;;;11.68;3.03;;;;;;;8.94;62.00;101421.75;4951977;28;124245;-67
2023/01/10 03:40:22;;;;;;;11.02;2.92;;;;;;;8.94;61.83;101427.03;4958090;28;114925;-67
2023/01/10 03:46:01;;;;;;;16.63;2.90;;;;;;;8.91;61.99;101421.81;4955063;28;123497;-67
2023/01/10 03:48:35;;;;;;;10.90;2.53;;;;;;;8.89;61.94;101428.94;4957283;28;124311;-67
2023/01/10 03:51:05;;;;;;;12.40;2.88;;;;;;;8.88;61.74;101416.66;4945197;28;114877;-67
2023/01/10 03:53:33;;;;;;;9.90;2.58;;;;;;;8.86;61.77;101419.31;4959355;28;113946;-67
2023/01/10 03:56:00;;;;;;;12.50;3.13;;;;;;;8.86;61.73;101429.03;4952199;28;122803;-67
2023/01/10 03:58:28;;;;;;;12.63;3.00;;;;;;;8.84;61.64;101425.56;4951295;28;124037;-67
2023/01/10 04:00:55;;;;;;;15.25;2.80;;;;;;;8.84;61.89;101431.72;4950243;28;114386;-67
2023/01/10 04:03:23;;;;;;;10.88;2.60;;;;;;;8.84;61.78;101441.44;4948441;28;114149;-67
2023/01/10 04:05:50;;;;;;;12.57;3.05;;;;;;;8.84;61.61;101430.84;4948520;28;124711;-67
2023/01/10 04:08:17;;;;;;;15.57;2.78;;;;;;;8.85;61.83;101435.22;4954008;28;123742;-67
2023/01/10 04:10:44;;;;;;;12.85;2.85;;;;;;;8.85;61.68;101437.84;4951881;28;115579;-67
2023/01/10 04:13:11;;;;;;;11.70;2.85;;;;;;;8.85;61.69;101446.63;4947468;28;113355;-66
2023/01/10 04:15:38;;;;;;;13.35;2.58;;;;;;;8.86;61.84;101444.88;4954821;28;124777;-66
2023/01/10 04:18:05;;;;;;;14.88;2.83;;;;;;;8.85;61.57;101448.41;4952620;28;123970;-66
2023/01/10 04:20:32;;;;;;;11.25;2.72;;;;;;;8.84;61.62;101452.00;4951225;28;114159;-66
2023/01/10 04:22:59;;;;;;;7.57;2.55;;;;;;;8.83;61.37;101437.03;4950568;28;114307;-66
2023/01/10 04:25:26;;;;;;;11.23;2.70;;;;;;;8.80;61.32;101445.03;4948701;28;124225;-66
2023/01/10 04:27:53;;;;;;;12.02;2.70;;;;;;;8.79;61.53;101445.97;4950585;28;123680;-66
2023/01/10 04:30:20;;;;;;;13.15;3.20;;;;;;;8.75;61.42;101450.47;4959183;28;114312;-68
2023/01/10 04:32:47;;;;;;;14.32;2.30;;;;;;;8.73;61.42;101445.22;4951116;28;114192;-66
2023/01/10 04:35:14;;;;;;;9.95;2.85;;;;;;;8.71;61.55;101447.03;4946275;28;124513;-67
2023/01/10 04:37:42;;;;;;;11.23;2.70;;;;;;;8.69;61.54;101448.84;4951648;28;123629;-65
2023/01/10 04:40:10;;;;;;;15.23;2.45;;;;;;;8.68;61.35;101452.41;4955717;28;114365;-67
2023/01/10 04:42:37;;;;;;;13.75;3.15;;;;;;;8.67;61.47;101452.44;4949736;28;113598;-67
2023/01/10 04:45:04;;;;;;;8.00;2.30;;;;;;;8.65;61.22;101463.06;4951584;28;124936;-66
2023/01/10 04:48:20;;;;;;;15.93;2.97;;;;;;;8.62;61.38;101463.13;4955823;28;124444;-66
2023/01/10 04:50:49;;;;;;;14.93;2.92;;;;;;;8.59;61.69;101468.50;4949555;28;115791;-65
2023/01/10 04:53:17;;;;;;;11.70;2.50;;;;;;;8.59;61.70;101468.50;4941712;28;115637;-66
2023/01/10 04:55:45;;;;;;;13.73;2.42;;;;;;;8.58;61.62;101472.91;4960407;28;124758;-66
2023/01/10 04:58:12;;;;;;;14.30;2.92;;;;;;;8.58;61.50;101472.91;4952214;28;123880;-66
2023/01/10 05:00:39;;;;;;;13.10;2.60;;;;;;;8.57;61.65;101476.47;4951911;28;114261;-66
2023/01/10 05:03:07;;;;;;;11.07;2.30;;;;;;;8.57;61.50;101480.88;4959228;28;113861;-66
2023/01/10 05:05:34;;;;;;;11.32;2.67;;;;;;;8.57;61.48;101486.16;4952402;28;124425;-66
2023/01/10 05:08:01;;;;;;;16.83;3.10;;;;;;;8.55;61.46;101493.22;4952316;28;124018;-66
2023/01/10 05:10:28;;;;;;;11.05;2.47;;;;;;;8.55;61.59;101487.94;4949427;28;114772;-66
2023/01/10 05:12:55;;;;;;;11.23;2.67;;;;;;;8.53;61.63;101479.22;4950608;28;113736;-66
2023/01/10 05:15:22;;;;;;;11.63;2.60;;;;;;;8.54;61.42;101497.66;4949646;28;124944;-66
2023/01/10 05:17:56;;;;;;;16.02;3.22;;;;;;;8.54;61.92;101491.50;4954773;28;123753;-66
2023/01/10 05:20:24;;;;;;;13.45;2.38;;;;;;;8.52;61.44;101493.34;4945777;28;114527;-66
2023/01/10 05:22:51;;;;;;;11.57;3.00;;;;;;;8.50;61.93;101479.31;4956970;28;113847;-66
2023/01/10 05:25:18;;;;;;;11.68;2.90;;;;;;;8.51;61.18;101481.03;4954701;28;123895;-66
2023/01/10 05:27:45;;;;;;;14.70;2.78;;;;;;;8.51;61.24;101483.66;4955975;28;124688;-66
2023/01/10 05:30:13;;;;;;;10.18;2.70;;;;;;;8.51;61.25;101491.59;4950458;28;114009;-66
2023/01/10 05:32:40;;;;;;;14.25;2.50;;;;;;;8.49;61.38;101504.81;4940929;28;113577;-65
2023/01/10 05:35:08;;;;;;;13.13;2.90;;;;;;;8.48;61.27;101518.09;4956615;28;123509;-65
2023/01/10 05:37:35;;;;;;;14.13;3.10;;;;;;;8.46;61.21;101525.19;4950045;28;123753;-66
2023/01/10 05:40:04;;;;;;;15.45;2.47;;;;;;;8.44;61.30;101540.16;4949123;28;114953;-66
2023/01/10 05:42:32;;;;;;;17.70;2.97;;;;;;;8.45;61.68;101541.91;4952141;28;114787;-66
2023/01/10 05:44:59;;;;;;;11.25;2.55;;;;;;;8.45;61.51;101541.91;4952626;28;124686;-66
2023/01/10 05:47:26;;;;;;;14.38;3.35;;;;;;;8.45;61.70;101549.81;4937706;28;123489;-66
2023/01/10 05:49:53;;;;;;;16.85;3.25;;;;;;;8.45;61.59;101552.47;4949398;28;114812;-66
2023/01/10 05:52:20;;;;;;;15.07;2.08;;;;;;;8.47;61.71;101555.94;4953938;28;114093;-66
2023/01/10 05:54:47;;;;;;;17.77;2.75;;;;;;;8.47;61.85;101559.44;4953795;28;124205;-66
2023/01/10 05:57:14;;;;;;;15.68;2.67;;;;;;;8.48;61.74;101557.69;4937018;28;125671;-66
2023/01/10 05:59:41;;;;;;;15.85;2.92;;;;;;;8.49;61.56;101551.47;4967981;28;114764;-66
2023/01/10 06:02:08;;;;;;;13.32;2.63;;;;;;;8.49;61.71;101556.75;4951919;28;113781;-66
2023/01/10 06:04:36;;;;;;;16.77;3.08;;;;;;;8.49;61.59;101556.75;4953451;28;125000;-65
2023/01/10 06:07:03;;;;;;;17.63;3.08;;;;;;;8.51;61.60;101565.50;4941912;28;122649;-67
2023/01/10 06:09:31;;;;;;;13.65;2.72;;;;;;;8.52;61.74;101569.91;4955437;28;114843;-65
2023/01/10 06:11:58;;;;;;;11.07;2.72;;;;;;;8.53;61.69;101574.25;4955812;28;114656;-66
2023/01/10 06:14:25;;;;;;;17.65;2.85;;;;;;;8.53;61.99;101563.69;4952865;28;123972;-67
2023/01/10 06:16:52;;;;;;;18.27;3.35;;;;;;;8.55;61.57;101562.75;4955452;28;124737;-66
2023/01/10 06:19:19;;;;;;;15.52;2.92;;;;;;;8.56;61.87;101563.63;4956137;28;113920;-66
2023/01/10 06:21:46;;;;;;;16.35;2.90;;;;;;;8.56;61.62;101563.63;4960133;28;114333;-66
2023/01/10 06:24:13;;;;;;;10.75;2.65;;;;;;;8.58;61.63;101578.50;4953238;28;124152;-66
2023/01/10 06:26:41;;;;;;;15.90;2.92;;;;;;;8.60;61.83;101578.47;4955859;28;125396;-66
2023/01/10 06:29:08;;;;;;;17.17;2.95;;;;;;;8.61;61.81;101572.31;4956310;28;115159;-66
2023/01/10 06:31:35;;;;;;;15.80;3.00;;;;;;;8.62;61.79;101581.94;4946538;28;115638;-66
2023/01/10 06:34:02;;;;;;;15.32;2.72;;;;;;;8.64;61.93;101588.06;4956685;28;124197;-66
2023/01/10 06:36:29;;;;;;;19.58;3.00;;;;;;;8.65;61.82;101589.81;4959819;28;124740;-66
2023/01/10 06:38:56;;;;;;;13.25;2.80;;;;;;;8.68;61.82;101592.38;4936707;28;115640;-67
2023/01/10 06:41:23;;;;;;;20.48;3.25;;;;;;;8.70;61.77;101598.47;4959150;28;113971;-66
2023/01/10 06:43:50;;;;;;;18.80;2.95;;;;;;;8.72;61.99;101596.66;4929273;28;126231;-66
2023/01/10 06:46:18;;;;;;;16.05;3.25;;;;;;;8.75;61.94;101607.13;4948800;28;124475;-66
2023/01/10 06:48:46;;;;;;;15.80;2.53;;;;;;;8.77;61.68;101607.97;4955176;28;114523;-66
2023/01/10 06:51:15;;;;;;;12.35;2.35;;;;;;;8.81;61.55;101615.81;4956932;28;114305;-66
2023/01/10 06:53:45;;;;;;;18.88;3.05;;;;;;;8.83;61.49;101620.16;4957108;28;123988;-66
2023/01/10 06:56:13;;;;;;;15.40;2.80;;;;;;;8.86;61.89;101624.50;4948545;28;124224;-66
2023/01/10 06:58:40;;;;;;;16.60;3.00;;;;;;;8.87;62.04;101621.84;4953032;28;114035;-66
2023/01/10 07:01:13;;;;;;;16.27;3.10;;;;;;;8.89;61.61;101613.84;4956974;28;113899;-67
2023/01/10 07:03:40;;;;;;;20.40;3.38;;;;;;;8.91;61.75;101618.19;4956747;28;123760;-66
2023/01/10 07:06:10;;;;;;;16.08;2.45;;;;;;;8.93;61.52;101628.72;4957600;28;122686;-66
2023/01/10 07:08:43;;;;;;;23.20;2.88;;;;;;;8.94;61.74;101627.81;4954966;28;115643;-66
2023/01/10 07:11:13;;;;;;;13.05;2.28;;;;;;;8.97;61.70;101635.66;4941197;28;113393;-67
2023/01/10 07:13:40;;;;;;;14.70;3.53;;;;;;;8.98;61.58;101634.75;4951361;28;123138;-66
2023/01/10 07:16:10;;;;;;;17.38;3.08;;;;;;;8.99;61.56;101636.50;4950938;28;124837;-67
2023/01/10 07:18:39;;;;;;;17.58;3.05;;;;;;;8.99;61.17;101647.06;4953872;28;115442;-67
2023/01/10 07:21:07;;;;;;;18.73;2.70;;;;;;;8.98;61.47;101655.88;4970897;28;115476;-66
2023/01/10 07:23:34;;;;;;;17.65;2.95;;;;;;;8.98;61.26;101666.44;4953937;28;123447;-67
2023/01/10 07:26:04;;;;;;;21.65;3.22;;;;;;;8.96;61.10;101665.63;4940785;28;126028;-67
2023/01/10 07:28:33;;;;;;;13.52;2.80;;;;;;;8.94;61.23;101665.66;4967932;28;114140;-67
2023/01/10 07:31:02;;;;;;;15.43;2.72;;;;;;;8.92;60.99;101671.91;4955541;28;113992;-66
2023/01/10 07:33:30;;;;;;;18.10;2.80;;;;;;;8.89;60.97;101671.97;4944221;28;124831;-67
2023/01/10 07:35:59;;;;;;;14.48;2.60;;;;;;;8.87;61.18;101684.34;4947415;28;123654;-67
2023/01/10 07:38:27;;;;;;;13.55;2.83;;;;;;;8.84;61.14;101697.63;4960492;28;115158;-67
2023/01/10 07:40:55;;;;;;;14.88;2.50;;;;;;;8.80;60.86;101704.75;4958294;28;113988;-67
2023/01/10 07:43:22;;;;;;;16.17;2.92;;;;;;;8.77;60.87;101713.63;4949970;28;125131;-66
2023/01/10 07:45:49;;;;;;;14.43;2.55;;;;;;;8.73;60.87;101714.59;4949515;28;124636;-66
2023/01/10 07:48:16;;;;;;;18.55;3.15;;;;;;;8.70;61.20;101719.97;4952237;28;113337;-66
2023/01/10 07:50:43;;;;;;;22.60;3.20;;;;;;;8.67;61.05;101712.09;4957413;28;114092;-67
2023/01/10 07:53:11;;;;;;;22.05;3.58;;;;;;;8.65;60.92;101721.84;4929073;28;123419;-67
2023/01/10 07:55:38;;;;;;;21.60;2.80;;;;;;;8.63;61.11;101710.44;4960908;28;123592;-67
2023/01/10 07:58:06;;;;;;;15.60;2.67;;;;;;;8.62;61.41;101711.34;4958629;28;113597;-66
2023/01/10 08:00:34;;;;;;;11.07;3.10;;;;;;;8.62;61.19;101721.88;4954703;28;114004;-67
2023/01/10 08:03:01;;;;;;;14.32;3.03;;;;;;;8.63;61.42;101734.22;4958229;28;124791;-66
2023/01/10 08:05:28;;;;;;;16.95;2.28;;;;;;;8.66;61.13;101713.00;4956704;28;123672;-67
2023/01/10 08:07:58;;;;;;;11.85;2.72;;;;;;;8.67;61.30;101717.38;4955304;28;115114;-67
2023/01/10 08:10:26;;;;;;;13.48;2.28;;;;;;;8.68;61.20;101727.06;4956245;28;113796;-67
2023/01/10 08:12:53;;;;;;;13.85;1.95;;;;;;;8.70;61.16;101738.44;4967257;28;124021;-67
2023/01/10 08:15:20;;;;;;;11.88;2.17;;;;;;;8.73;61.16;101735.72;4963487;28;124546;-66
2023/01/10 08:17:47;;;;;;;13.38;1.70;;;;;;;8.74;61.37;101731.34;4964553;28;113184;-67
2023/01/10 08:20:15;;;;;;;13.27;2.38;;;;;;;8.79;61.42;101739.13;4959615;28;114364;-67
2023/01/10 08:22:42;;;;;;;9.98;2.35;;;;;;;8.82;61.50;101731.16;4959251;28;124086;-67
2023/01/10 08:25:09;;;;;;;14.02;2.53;;;;;;;8.86;61.43;101746.00;4959419;28;123152;-67
2023/01/10 08:27:36;;;;;;;12.70;1.98;;;;;;;8.89;61.26;101730.06;4966474;28;115168;-67
2023/01/10 08:30:04;;;;;;;14.13;2.58;;;;;;;8.93;61.27;101737.06;4948861;28;112905;-69
2023/01/10 08:32:32;;;;;;;16.27;2.90;;;;;;;8.95;61.14;101743.16;4957763;28;123010;-66
2023/01/10 08:34:59;;;;;;;14.80;2.60;;;;;;;8.98;61.33;101740.44;4942614;28;125031;-67
2023/01/10 08:37:26;;;;;;;13.32;2.25;;;;;;;9.00;61.50;101743.91;4968571;28;116586;-66
2023/01/10 08:39:53;;;;;;;12.52;2.40;;;;;;;9.03;61.19;101738.56;4962289;28;114013;-67
2023/01/10 08:42:20;;;;;;;9.77;1.90;;;;;;;9.05;61.32;101736.72;4962636;28;123821;-67
2023/01/10 08:44:47;;;;;;;12.27;2.20;;;;;;;9.10;61.31;101742.78;4960463;28;124507;-67
2023/01/10 08:47:14;;;;;;;14.82;2.63;;;;;;;9.14;61.03;101736.50;4953125;28;114011;-66
2023/01/10 08:49:41;;;;;;;13.73;2.03;;;;;;;9.17;61.12;101738.19;4949558;28;113808;-66
2023/01/10 08:52:08;;;;;;;8.18;1.77;;;;;;;9.23;61.32;101729.25;4948793;28;124309;-67
2023/01/10 08:54:35;;;;;;;13.30;2.15;;;;;;;9.28;61.33;101727.38;4956245;28;124189;-67
2023/01/10 08:57:03;;;;;;;13.60;2.55;;;;;;;9.32;61.13;101729.03;4945448;28;115081;-67
2023/01/10 08:59:30;;;;;;;12.50;2.10;;;;;;;9.36;61.14;101735.97;4955643;28;115082;-67
2023/01/10 09:01:58;;;;;;;13.43;2.38;;;;;;;9.41;60.95;101727.94;4947434;28;125259;-67
2023/01/10 09:04:27;;;;;;;11.40;2.25;;;;;;;9.45;61.09;101725.16;4962499;28;124194;-67
2023/01/10 09:06:55;;;;;;;7.53;1.95;;;;;;;9.45;60.81;101719.00;4965866;28;114204;-67
2023/01/10 09:09:22;;;;;;;13.85;2.38;;;;;;;9.46;61.17;101718.97;4949045;28;114024;-67
2023/01/10 09:11:49;;;;;;;10.40;2.17;;;;;;;9.48;60.90;101722.44;4949102;28;124598;-67
2023/01/10 09:14:16;;;;;;;14.88;2.08;;;;;;;9.47;60.69;101718.03;4947584;28;122895;-67
2023/01/10 09:16:43;;;;;;;9.52;1.63;;;;;;;9.48;60.91;101717.16;4948145;28;114247;-67
2023/01/10 09:19:11;;;;;;;9.93;2.60;;;;;;;9.50;60.67;101720.63;4949007;28;114738;-68
2023/01/10 09:21:38;;;;;;;9.40;2.20;;;;;;;9.51;60.89;101706.50;4953442;28;123236;-67
2023/01/10 09:24:06;;;;;;;12.88;1.77;;;;;;;9.52;60.77;101707.34;4952040;28;124462;-67
2023/01/10 09:26:33;;;;;;;12.43;1.80;;;;;;;9.53;60.72;101702.03;4940490;28;114352;-67
2023/01/10 09:29:00;;;;;;;7.38;1.73;;;;;;;9.57;60.52;101708.13;4969270;28;114050;-67
2023/01/10 09:31:27;;;;;;;12.63;2.00;;;;;;;9.59;60.49;101702.75;4954057;28;124507;-67
2023/01/10 09:33:54;;;;;;;9.65;2.15;;;;;;;9.60;60.69;101707.16;4968283;28;124847;-67
2023/01/10 09:36:21;;;;;;;15.00;2.10;;;;;;;9.61;60.48;101698.31;4966436;28;114382;-67
2023/01/10 09:38:49;;;;;;;11.30;1.80;;;;;;;9.62;60.61;101705.34;4950288;28;115067;-67
2023/01/10 09:41:19;;;;;;;13.45;2.33;;;;;;;9.63;60.31;101707.09;4922188;28;124878;-67
2023/01/10 09:44:04;;;;;;;14.30;2.17;;;;;;;9.61;60.72;101708.91;4949669;28;123734;-67
2023/01/10 09:47:01;;;;;;;14.43;2.30;;;;;;;9.62;60.51;101706.19;4949602;28;116253;-67
2023/01/10 09:49:59;;;;;;;9.75;1.85;;;;;;;9.62;60.26;101710.63;4959700;28;114681;-67
2023/01/10 09:52:32;;;;;;;;;;;;;;;9.60;60.28;101707.16;4952186;28;124484;-66
2023/01/10 09:55:15;;;;;;;11.15;3.00;;;;;;;9.60;60.36;101712.44;4949525;28;124310;-66
2023/01/10 09:57:42;;;;;;;9.27;1.77;;;;;;;9.60;60.36;101712.44;4955610;28;114124;-67
2023/01/10 10:00:19;;;;;;;10.07;2.50;;;;;;;9.60;60.27;101702.72;4939812;28;113795;-67
2023/01/10 10:02:51;;;;;;;10.80;2.22;;;;;;;9.62;60.65;101715.91;4944288;28;125770;-67
2023/01/10 10:05:24;;;;;;;10.57;2.53;;;;;;;9.65;60.56;101715.84;4946553;28;123821;-67
2023/01/10 10:08:01;;;;;;;8.90;2.10;;;;;;;9.68;60.45;101721.91;4945852;28;115157;-67
2023/01/10 10:10:38;;;;;;;13.48;3.05;;;;;;;9.71;60.41;101715.66;4949463;28;114806;-67
2023/01/10 10:13:17;;;;;;;14.55;2.67;;;;;;;9.75;60.53;101727.88;4949606;28;122928;-67
2023/01/10 10:16:12;;;;;;;13.00;2.55;;;;;;;9.77;60.54;101731.34;4947463;28;125437;-67
2023/01/10 10:18:47;;;;;;;11.20;2.33;;;;;;;9.79;60.47;101721.59;4948165;28;114074;-67
2023/01/10 10:21:47;;;;;;;10.60;2.40;;;;;;;9.80;60.52;101715.41;4949334;28;114058;-67
2023/01/10 10:24:17;;;;;;;14.00;2.30;;;;;;;9.83;60.47;101704.75;4952232;28;123801;-67
2023/01/10 10:27:07;;;;;;;11.13;2.67;;;;;;;9.86;60.56;101702.00;4950744;28;125419;-68
2023/01/10 10:29:49;;;;;;;10.63;2.60;;;;;;;9.90;60.52;101701.00;4959238;28;114276;-67
2023/01/10 10:32:22;;;;;;;13.35;2.25;;;;;;;9.94;60.44;101686.78;4960780;28;115933;-67
2023/01/10 10:34:52;;;;;;;12.32;2.40;;;;;;;9.99;60.38;101684.00;4950173;28;123196;-67
2023/01/10 10:37:45;;;;;;;14.18;2.25;;;;;;;10.03;60.39;101679.50;4950924;28;124505;-66
2023/01/10 10:40:12;;;;;;;18.33;2.70;;;;;;;10.07;60.32;101675.84;4951187;28;115213;-67
2023/01/10 10:42:49;;;;;;;12.90;2.20;;;;;;;10.07;60.15;101671.41;4934127;28;115514;-67
2023/01/10 10:45:21;;;;;;;16.83;2.55;;;;;;;10.11;60.04;101674.81;4947656;28;123913;-66
2023/01/10 10:47:56;;;;;;;8.47;1.83;;;;;;;10.12;60.15;101673.94;4947448;28;124426;-67
2023/01/10 10:50:32;;;;;;;14.65;1.77;;;;;;;10.13;60.03;101675.66;4937074;28;115164;-67
2023/01/10 10:53:01;;;;;;;17.02;2.53;;;;;;;10.15;59.93;101668.53;4950693;28;113378;-67
2023/01/10 10:55:32;;;;;;;12.55;2.20;;;;;;;10.16;59.90;101664.97;4945209;28;125043;-67
2023/01/10 10:58:00;;;;;;;10.25;1.65;;;;;;;10.16;60.04;101654.38;4946985;28;124171;-68
2023/01/10 11:00:28;;;;;;;10.98;1.90;;;;;;;10.19;59.76;101654.31;4945275;28;114900;-66
2023/01/10 11:03:25;;;;;;;13.35;2.72;;;;;;;10.21;59.86;101652.47;4965549;28;114808;-66
2023/01/10 11:05:54;;;;;;;12.15;2.30;;;;;;;10.23;60.01;101645.34;4960635;28;123033;-67
2023/01/10 11:08:23;;;;;;;11.85;2.30;;;;;;;10.26;59.73;101647.88;4950604;28;122548;-67
2023/01/10 11:10:55;;;;;;;10.75;2.30;;;;;;;10.27;59.76;101646.97;4953948;28;114265;-67
2023/01/10 11:13:28;;;;;;;7.78;2.08;;;;;;;10.29;59.71;101642.50;4934871;28;112476;-66
2023/01/10 11:15:56;;;;;;;17.70;2.50;;;;;;;10.30;59.62;101639.00;4944500;28;124052;-67
2023/01/10 11:18:26;;;;;;;9.65;2.55;;;;;;;10.33;59.83;101641.53;4947190;28;125392;-66
2023/01/10 11:21:12;;;;;;;7.55;2.15;;;;;;;10.36;59.55;101645.00;4948857;28;115584;-67
2023/01/10 11:23:39;;;;;;;13.35;2.20;;;;;;;10.41;59.62;101637.78;4940562;28;114697;-67
2023/01/10 11:26:25;;;;;;;7.95;2.03;;;;;;;10.45;59.71;101634.09;4944219;28;124127;-67
2023/01/10 11:29:22;;;;;;;10.55;1.90;;;;;;;10.47;59.71;101632.28;4947141;28;123773;-67
2023/01/10 11:31:51;;;;;;;12.75;2.25;;;;;;;10.50;59.47;101621.59;4957721;28;115024;-67
2023/01/10 11:34:34;;;;;;;7.63;2.05;;;;;;;10.50;59.65;101626.88;4944025;28;114879;-66
2023/01/10 11:37:26;;;;;;;15.23;2.17;;;;;;;10.51;59.60;101623.34;4934356;28;124541;-67
2023/01/10 11:40:11;;;;;;;11.18;2.22;;;;;;;10.52;59.61;101617.09;4950928;28;124665;-66
2023/01/10 11:42:38;;;;;;;15.52;2.72;;;;;;;10.55;59.39;101614.38;4950640;28;114457;-67
2023/01/10 11:45:32;;;;;;;9.82;2.40;;;;;;;10.56;59.53;101615.22;4950954;28;113953;-67
2023/01/10 11:48:20;;;;;;;14.13;2.58;;;;;;;10.59;59.62;101616.00;4933504;28;123707;-67